createdAt,value
2022-08-11T00:00:34.652Z,19.00
2022-08-11T00:03:20.914Z,19.00
2022-08-11T00:06:06.737Z,19.00
2022-08-11T00:08:53.817Z,18.90
2022-08-11T00:11:51.176Z,18.90
2022-08-11T00:17:28.176Z,18.90
2022-08-11T00:20:16.973Z,18.80
2022-08-11T00:23:09.807Z,18.70
2022-08-11T00:25:56.149Z,18.80
2022-08-11T00:28:42.197Z,18.70
2022-08-11T00:31:31.851Z,18.60
2022-08-11T00:34:21.810Z,18.60
2022-08-11T00:37:12.119Z,18.50
2022-08-11T00:43:01.891Z,18.40
2022-08-11T00:46:08.991Z,18.40
2022-08-11T00:49:13.246Z,18.30
2022-08-11T00:52:22.776Z,18.30
2022-08-11T00:55:31.006Z,18.30
2022-08-11T00:58:52.119Z,18.30
2022-08-11T01:01:37.702Z,18.30
2022-08-11T01:04:57.052Z,18.20
2022-08-11T01:08:15.756Z,18.00
2022-08-11T01:11:14.070Z,18.10
2022-08-11T01:14:33.569Z,18.00
2022-08-11T01:17:48.020Z,17.90
2022-08-11T01:20:59.786Z,17.90
2022-08-11T01:24:21.035Z,17.90
2022-08-11T01:27:19.779Z,17.80
2022-08-11T01:30:48.557Z,17.70
2022-08-11T01:33:52.909Z,17.80
2022-08-11T01:36:59.737Z,17.80
2022-08-11T01:40:04.343Z,17.70
2022-08-11T01:43:32.834Z,17.70
2022-08-11T01:46:36.631Z,17.60
2022-08-11T01:50:02.913Z,17.50
2022-08-11T01:53:00.976Z,17.50
2022-08-11T01:56:10.393Z,17.50
2022-08-11T01:59:14.695Z,17.50
2022-08-11T02:02:21.628Z,17.50
2022-08-11T02:05:11.230Z,17.40
2022-08-11T02:08:19.195Z,17.30
2022-08-11T02:11:35.310Z,17.30
2022-08-11T02:14:59.949Z,17.20
2022-08-11T02:18:03.912Z,16.20
2022-08-11T02:21:15.774Z,17.00
2022-08-11T02:24:15.090Z,17.10
2022-08-11T02:27:07.868Z,17.10
2022-08-11T02:30:05.073Z,17.00
2022-08-11T02:33:24.652Z,17.00
2022-08-11T02:36:36.693Z,17.00
2022-08-11T02:39:28.490Z,17.00
2022-08-11T02:42:32.648Z,14.50
2022-08-11T02:45:56.527Z,16.90
2022-08-11T02:49:26.534Z,16.90
2022-08-11T02:52:14.821Z,16.80
2022-08-11T02:55:48.925Z,16.70
2022-08-11T02:58:44.147Z,16.80
2022-08-11T03:01:50.378Z,16.80
2022-08-11T03:05:20.915Z,16.80
2022-08-11T03:08:31.525Z,16.70
2022-08-11T03:12:10.217Z,16.70
2022-08-11T03:15:48.161Z,16.90
2022-08-11T03:18:57.948Z,16.80
2022-08-11T03:22:07.401Z,16.70
2022-08-11T03:25:00.569Z,16.70
2022-08-11T03:28:09.247Z,16.70
2022-08-11T03:31:24.722Z,16.60
2022-08-11T03:34:16.335Z,16.50
2022-08-11T03:37:50.957Z,16.50
2022-08-11T03:42:01.133Z,16.60
2022-08-11T03:44:43.558Z,16.50
2022-08-11T03:47:55.095Z,16.40
2022-08-11T03:51:09.790Z,16.20
2022-08-11T03:54:16.259Z,16.20
2022-08-11T03:57:23.157Z,16.20
2022-08-11T04:00:25.977Z,16.20
2022-08-11T04:03:31.349Z,16.20
2022-08-11T04:07:10.882Z,16.20
2022-08-11T04:10:36.950Z,16.20
2022-08-11T04:13:53.537Z,16.20
2022-08-11T04:16:46.912Z,16.20
2022-08-11T04:20:01.967Z,16.20
2022-08-11T04:26:16.096Z,16.10
2022-08-11T04:29:35.951Z,16.20
2022-08-11T04:32:59.005Z,16.20
2022-08-11T04:35:55.636Z,16.20
2022-08-11T04:39:05.976Z,16.20
2022-08-11T04:42:12.829Z,16.20
2022-08-11T04:48:25.119Z,16.10
2022-08-11T04:51:51.132Z,16.20
2022-08-11T04:55:25.580Z,16.20
2022-08-11T04:58:32.285Z,16.20
2022-08-11T05:05:10.719Z,16.20
2022-08-11T05:08:29.383Z,16.30
2022-08-11T05:11:45.905Z,16.30
2022-08-11T05:14:54.057Z,16.30
2022-08-11T05:18:17.485Z,16.40
2022-08-11T05:21:28.675Z,16.50
2022-08-11T05:24:40.857Z,16.50
2022-08-11T05:27:58.157Z,16.50
2022-08-11T05:31:04.443Z,16.50
2022-08-11T05:34:11.365Z,16.60
2022-08-11T05:37:25.135Z,16.50
2022-08-11T05:40:34.264Z,16.60
2022-08-11T05:43:38.712Z,16.70
2022-08-11T05:47:03.888Z,16.70
2022-08-11T05:50:13.772Z,16.80
2022-08-11T05:53:21.633Z,16.90
2022-08-11T05:56:20.199Z,17.00
2022-08-11T06:01:52.794Z,17.10
2022-08-11T06:04:39.316Z,17.10
2022-08-11T06:07:30.304Z,17.10
2022-08-11T06:10:37.423Z,17.30
2022-08-11T06:13:25.008Z,17.30
2022-08-11T06:16:14.226Z,17.40
2022-08-11T06:19:00.234Z,17.40
2022-08-11T06:21:47.878Z,17.60
2022-08-11T06:24:35.529Z,17.60
2022-08-11T06:27:28.707Z,17.80
2022-08-11T06:30:14.480Z,17.80
2022-08-11T06:33:01.543Z,17.90
2022-08-11T06:36:10.768Z,18.00
2022-08-11T06:39:23.465Z,18.10
2022-08-11T06:42:24.142Z,18.20
2022-08-11T06:45:28.559Z,18.30
2022-08-11T06:48:20.923Z,18.40
2022-08-11T06:51:14.534Z,18.50
2022-08-11T06:54:04.858Z,18.60
2022-08-11T06:57:29.329Z,18.70
2022-08-11T07:00:30.095Z,18.80
2022-08-11T07:03:20.869Z,18.90
2022-08-11T07:06:22.605Z,19.10
2022-08-11T07:10:00.171Z,19.20
2022-08-11T07:13:06.733Z,19.40
2022-08-11T07:16:12.064Z,19.60
2022-08-11T07:19:25.056Z,19.80
2022-08-11T07:22:30.469Z,19.90
2022-08-11T07:25:35.774Z,20.10
2022-08-11T07:28:49.827Z,20.30
2022-08-11T07:31:42.034Z,20.30
2022-08-11T07:34:40.387Z,22.70
2022-08-11T07:37:29.069Z,20.70
2022-08-11T07:40:19.283Z,20.90
2022-08-11T07:43:06.998Z,21.10
2022-08-11T07:46:11.427Z,21.20
2022-08-11T07:49:16.596Z,21.40
2022-08-11T07:52:21.295Z,21.50
2022-08-11T07:55:17.014Z,21.70
2022-08-11T07:58:21.842Z,21.90
2022-08-11T08:01:31.463Z,22.10
2022-08-11T08:04:37.599Z,22.40
2022-08-11T08:07:42.576Z,22.50
2022-08-11T08:10:49.888Z,22.80
2022-08-11T08:13:55.451Z,23.00
2022-08-11T08:17:00.971Z,23.20
2022-08-11T08:19:48.696Z,23.40
2022-08-11T08:22:39.050Z,23.60
2022-08-11T08:25:34.221Z,23.80
2022-08-11T08:28:20.579Z,24.00
2022-08-11T08:31:06.273Z,24.10
2022-08-11T08:33:52.641Z,24.30
2022-08-11T08:36:39.895Z,24.40
2022-08-11T08:39:25.355Z,24.40
2022-08-11T08:42:12.460Z,24.60
2022-08-11T08:45:10.663Z,24.70
2022-08-11T08:48:01.674Z,24.90
2022-08-11T08:51:16.316Z,25.00
2022-08-11T08:54:20.235Z,25.20
2022-08-11T08:57:07.871Z,25.20
2022-08-11T08:59:54.066Z,25.20
2022-08-11T09:02:39.851Z,25.30
2022-08-11T09:05:27.289Z,25.40
2022-08-11T09:08:13.298Z,25.40
2022-08-11T09:11:18.771Z,25.40
2022-08-11T09:14:07.546Z,25.40
2022-08-11T09:16:55.742Z,25.60
2022-08-11T09:19:41.676Z,25.70
2022-08-11T09:22:57.422Z,25.70
2022-08-11T09:26:16.713Z,25.80
2022-08-11T09:29:04.502Z,25.90
2022-08-11T09:31:52.369Z,25.90
2022-08-11T09:34:39.133Z,26.00
2022-08-11T09:37:55.253Z,26.10
2022-08-11T09:40:44.959Z,26.10
2022-08-11T09:44:04.271Z,26.20
2022-08-11T09:46:52.317Z,26.20
2022-08-11T09:49:44.454Z,26.30
2022-08-11T09:52:35.702Z,26.40
2022-08-11T09:55:21.426Z,26.40
2022-08-11T09:58:42.469Z,26.40
2022-08-11T10:01:30.711Z,26.40
2022-08-11T10:04:24.870Z,26.60
2022-08-11T10:07:14.554Z,26.70
2022-08-11T10:10:02.672Z,26.80
2022-08-11T10:12:52.170Z,26.80
2022-08-11T10:15:38.675Z,26.70
2022-08-11T10:18:49.197Z,26.70
2022-08-11T10:22:07.425Z,26.70
2022-08-11T10:25:12.233Z,27.30
2022-08-11T10:28:28.530Z,26.80
2022-08-11T10:31:57.594Z,27.00
2022-08-11T10:34:49.528Z,27.00
2022-08-11T10:38:06.368Z,27.20
2022-08-11T10:41:07.498Z,27.20
2022-08-11T10:44:01.896Z,27.40
2022-08-11T10:47:08.866Z,27.60
2022-08-11T10:50:14.475Z,27.50
2022-08-11T10:53:20.049Z,27.60
2022-08-11T10:56:25.294Z,27.60
2022-08-11T10:59:11.007Z,27.60
2022-08-11T11:01:59.048Z,27.70
2022-08-11T11:04:59.375Z,27.70
2022-08-11T11:08:32.675Z,28.00
2022-08-11T11:11:19.185Z,28.00
2022-08-11T11:14:23.288Z,27.90
2022-08-11T11:17:26.151Z,27.90
2022-08-11T11:20:36.335Z,27.90
2022-08-11T11:23:41.725Z,28.00
2022-08-11T11:26:52.940Z,28.10
2022-08-11T11:29:50.686Z,28.10
2022-08-11T11:32:35.759Z,27.00
2022-08-11T11:35:39.350Z,28.30
2022-08-11T11:38:25.205Z,28.30
2022-08-11T11:41:26.072Z,28.30
2022-08-11T11:44:13.778Z,28.40
2022-08-11T11:47:01.006Z,28.40
2022-08-11T11:49:48.574Z,28.30
2022-08-11T11:52:35.710Z,28.40
2022-08-11T11:55:23.679Z,28.50
2022-08-11T11:58:28.434Z,28.60
2022-08-11T12:01:19.709Z,28.70
2022-08-11T12:04:06.655Z,28.50
2022-08-11T12:07:13.071Z,28.60
2022-08-11T12:09:59.464Z,28.40
2022-08-11T12:13:04.060Z,28.80
2022-08-11T12:16:31.490Z,28.70
2022-08-11T12:18:59.898Z,28.70
2022-08-11T12:22:04.845Z,28.70
2022-08-11T12:25:09.154Z,28.80
2022-08-11T12:27:55.922Z,28.90
2022-08-11T12:33:34.124Z,29.10
2022-08-11T12:36:21.721Z,28.90
2022-08-11T12:39:22.998Z,29.00
2022-08-11T12:42:31.984Z,28.90
2022-08-11T12:45:27.799Z,29.20
2022-08-11T12:48:58.639Z,29.50
2022-08-11T12:52:11.572Z,29.60
2022-08-11T12:55:07.544Z,29.50
2022-08-11T12:58:14.947Z,29.50
2022-08-11T13:01:19.037Z,29.50
2022-08-11T13:04:24.232Z,29.60
2022-08-11T13:07:10.276Z,29.40
2022-08-11T13:09:57.426Z,29.30
2022-08-11T13:12:49.016Z,29.40
2022-08-11T13:15:36.485Z,29.70
2022-08-11T13:18:23.324Z,29.60
2022-08-11T13:21:20.663Z,30.20
2022-08-11T13:24:06.478Z,29.70
2022-08-11T13:26:52.389Z,29.60
2022-08-11T13:29:41.505Z,29.70
2022-08-11T13:32:28.185Z,29.90
2022-08-11T13:35:17.878Z,29.60
2022-08-11T13:38:27.110Z,29.90
2022-08-11T13:41:30.730Z,29.90
2022-08-11T13:44:23.197Z,30.20
2022-08-11T13:47:15.155Z,30.10
2022-08-11T13:50:01.374Z,30.10
2022-08-11T13:52:53.115Z,29.90
2022-08-11T13:55:51.614Z,29.90
2022-08-11T13:58:38.768Z,29.80
2022-08-11T14:02:22.510Z,30.20
2022-08-11T14:04:44.058Z,30.30
2022-08-11T14:07:39.196Z,30.20
2022-08-11T14:10:30.124Z,30.10
2022-08-11T14:13:42.647Z,30.30
2022-08-11T14:16:41.879Z,30.30
2022-08-11T14:19:29.218Z,30.70
2022-08-11T14:22:16.682Z,31.90
2022-08-11T14:25:02.798Z,32.60
2022-08-11T14:28:30.498Z,34.30
2022-08-11T14:30:58.973Z,35.10
2022-08-11T14:34:00.883Z,35.10
2022-08-11T14:36:52.239Z,35.10
2022-08-11T14:39:47.298Z,34.90
2022-08-11T14:42:52.026Z,36.40
2022-08-11T14:45:58.746Z,36.90
2022-08-11T14:48:45.434Z,36.90
2022-08-11T14:51:32.805Z,36.90
2022-08-11T14:54:41.039Z,36.90
2022-08-11T14:58:04.524Z,37.70
2022-08-11T15:00:35.324Z,35.80
2022-08-11T15:03:25.014Z,35.60
2022-08-11T15:06:13.145Z,36.50
2022-08-11T15:08:58.809Z,35.60
2022-08-11T15:12:03.123Z,37.30
2022-08-11T15:15:08.875Z,37.60
2022-08-11T15:17:57.845Z,38.40
2022-08-11T15:21:02.818Z,38.70
2022-08-11T15:24:06.919Z,38.90
2022-08-11T15:27:12.466Z,38.60
2022-08-11T15:30:33.419Z,37.60
2022-08-11T15:33:38.920Z,37.90
2022-08-11T15:36:44.406Z,37.10
2022-08-11T15:39:58.524Z,37.40
2022-08-11T15:43:48.198Z,38.70
2022-08-11T15:46:47.287Z,39.50
2022-08-11T15:50:11.422Z,39.80
2022-08-11T15:52:53.246Z,38.00
2022-08-11T15:55:39.224Z,37.30
2022-08-11T15:58:46.285Z,36.40
2022-08-11T16:02:16.115Z,35.80
2022-08-11T16:05:05.935Z,37.00
2022-08-11T16:07:53.622Z,38.30
2022-08-11T16:10:44.819Z,38.40
2022-08-11T16:13:32.591Z,38.70
2022-08-11T16:16:18.711Z,38.00
2022-08-11T16:19:05.732Z,39.00
2022-08-11T16:21:53.267Z,37.60
2022-08-11T16:26:30.390Z,37.70
2022-08-11T16:28:00.098Z,37.60
2022-08-11T16:30:46.780Z,37.50
2022-08-11T16:33:49.551Z,37.70
2022-08-11T16:36:55.139Z,37.40
2022-08-11T16:39:41.873Z,38.20
2022-08-11T16:43:04.402Z,38.40
2022-08-11T16:46:14.605Z,37.60
2022-08-11T16:49:04.295Z,38.20
2022-08-11T16:51:49.439Z,38.10
2022-08-11T16:54:35.839Z,38.40
2022-08-11T16:57:43.095Z,37.70
2022-08-11T17:00:29.341Z,36.50
2022-08-11T17:03:54.348Z,36.10
2022-08-11T17:07:02.374Z,34.30
2022-08-11T17:10:50.918Z,33.30
2022-08-11T17:13:44.545Z,32.20
2022-08-11T17:16:37.438Z,31.00
2022-08-11T17:20:43.239Z,30.70
2022-08-11T17:22:50.200Z,30.60
2022-08-11T17:28:43.052Z,30.50
2022-08-11T17:31:48.124Z,30.20
2022-08-11T17:34:53.058Z,30.10
2022-08-11T17:37:39.429Z,29.80
2022-08-11T17:40:26.027Z,29.70
2022-08-11T17:43:29.875Z,29.60
2022-08-11T17:46:35.012Z,29.60
2022-08-11T17:49:20.994Z,29.30
2022-08-11T17:52:26.086Z,29.20
2022-08-11T17:55:51.805Z,29.10
2022-08-11T17:58:56.917Z,29.10
2022-08-11T18:01:44.900Z,28.90
2022-08-11T18:04:35.440Z,28.70
2022-08-11T18:07:42.122Z,28.60
2022-08-11T18:10:48.803Z,28.60
2022-08-11T18:13:56.194Z,28.60
2022-08-11T18:17:03.907Z,28.50
2022-08-11T18:20:10.667Z,28.50
2022-08-11T18:23:16.726Z,28.30
2022-08-11T18:26:23.547Z,28.20
2022-08-11T18:29:30.309Z,28.10
2022-08-11T18:32:49.967Z,28.00
2022-08-11T18:35:55.557Z,27.80
2022-08-11T18:39:00.829Z,27.70
2022-08-11T18:42:06.280Z,27.50
2022-08-11T18:45:11.721Z,27.50
2022-08-11T18:48:22.446Z,27.30
2022-08-11T18:51:36.666Z,27.20
2022-08-11T18:54:44.412Z,26.80
2022-08-11T18:57:50.109Z,26.60
2022-08-11T19:01:00.222Z,26.50
2022-08-11T19:04:11.699Z,26.30
2022-08-11T19:07:22.352Z,26.20
2022-08-11T19:10:27.905Z,26.10
2022-08-11T19:13:32.332Z,25.90
2022-08-11T19:16:38.692Z,25.80
2022-08-11T19:19:47.749Z,25.60
2022-08-11T19:22:53.295Z,25.50
2022-08-11T19:29:06.438Z,25.30
2022-08-11T19:32:12.471Z,25.20
2022-08-11T19:35:18.445Z,24.30
2022-08-11T19:38:23.187Z,25.20
2022-08-11T19:41:51.873Z,25.10
2022-08-11T19:44:53.562Z,25.00
2022-08-11T19:48:20.796Z,24.90
2022-08-11T19:51:23.912Z,24.80
2022-08-11T19:54:29.325Z,24.70
2022-08-11T19:57:39.706Z,24.60
2022-08-11T20:00:44.749Z,24.50
2022-08-11T20:03:48.591Z,24.40
2022-08-11T20:06:55.132Z,24.40
2022-08-11T20:10:05.766Z,24.30
2022-08-11T20:13:12.599Z,24.20
2022-08-11T20:16:28.282Z,24.10
2022-08-11T20:19:54.693Z,24.00
2022-08-11T20:22:59.231Z,23.80
2022-08-11T20:26:27.820Z,23.80
2022-08-11T20:29:29.174Z,23.80
2022-08-11T20:32:34.828Z,23.80
2022-08-11T20:35:40.239Z,23.80
2022-08-11T20:38:48.607Z,23.60
2022-08-11T20:41:58.768Z,23.50
2022-08-11T20:45:04.477Z,23.40
2022-08-11T20:48:10.094Z,23.40
2022-08-11T20:51:20.172Z,23.30
2022-08-11T20:54:42.954Z,23.20
2022-08-11T20:57:59.159Z,23.10
2022-08-11T21:01:08.317Z,23.10
2022-08-11T21:04:24.512Z,23.00
2022-08-11T21:07:29.307Z,22.90
2022-08-11T21:10:33.690Z,22.80
2022-08-11T21:13:41.511Z,22.70
2022-08-11T21:16:52.966Z,22.70
2022-08-11T21:20:08.025Z,22.60
2022-08-11T21:23:23.397Z,22.60
2022-08-11T21:26:33.671Z,22.40
2022-08-11T21:29:38.755Z,22.30
2022-08-11T21:32:44.030Z,22.30
2022-08-11T21:35:48.982Z,22.20
2022-08-11T21:41:59.487Z,22.00
2022-08-11T21:45:04.043Z,22.00
2022-08-11T21:48:09.641Z,21.90
2022-08-11T21:54:19.359Z,21.80
2022-08-11T21:57:24.820Z,21.70
2022-08-11T22:00:29.312Z,21.80
2022-08-11T22:06:55.260Z,21.80
2022-08-11T22:09:59.779Z,21.80
2022-08-11T22:16:08.687Z,21.60
2022-08-11T22:19:13.259Z,21.60
2022-08-11T22:22:19.286Z,21.60
2022-08-11T22:25:38.280Z,19.20
2022-08-11T22:31:49.584Z,21.50
2022-08-11T22:34:53.789Z,21.50
2022-08-11T22:37:59.331Z,21.50
2022-08-11T22:41:03.287Z,21.40
2022-08-11T22:44:07.274Z,21.30
2022-08-11T22:47:14.220Z,21.30
2022-08-11T22:50:25.689Z,21.20
2022-08-11T22:53:55.198Z,21.20
2022-08-11T22:56:54.918Z,21.10
2022-08-11T22:59:59.521Z,21.00
2022-08-11T23:03:04.699Z,20.90
2022-08-11T23:06:09.018Z,20.90
2022-08-11T23:09:15.286Z,20.90
2022-08-11T23:12:19.716Z,20.90
2022-08-11T23:15:24.771Z,20.80
2022-08-11T23:18:29.220Z,20.70
2022-08-11T23:21:34.384Z,20.50
2022-08-11T23:24:39.309Z,20.50
2022-08-11T23:27:45.873Z,20.40
2022-08-11T23:30:52.311Z,20.40
2022-08-11T23:34:00.647Z,20.40
2022-08-11T23:37:06.923Z,20.40
2022-08-11T23:40:11.093Z,20.40
2022-08-11T23:43:19.814Z,20.30
2022-08-11T23:46:24.492Z,20.30
2022-08-11T23:49:28.990Z,20.20
2022-08-11T23:52:34.543Z,20.10
2022-08-11T23:55:39.606Z,20.10
2022-08-11T23:58:43.607Z,20.10
